Time;durP1;ratioP1;P1;durP2;ratioP2;P2;SDS_P1;SDS_P2;PMS_P1;PMS_P2;Temp;Humidity;BMP_temperature;BMP_pressure;BME280_temperature;BME280_humidity;BME280_pressure;Samples;Min_cycle;Max_cycle;Signal;HPM_P1;HPM_P2
2021/04/06 00:01:59;;;;;;;4.53;1.10;;;0.60;99.90;;;;;;5068232;28;20230;-79
2021/04/06 00:04:31;;;;;;;5.23;1.10;;;0.60;99.90;;;;;;5068465;28;20230;-80
2021/04/06 00:06:59;;;;;;;4.07;1.40;;;0.60;99.90;;;;;;5068159;28;20233;-79
2021/04/06 00:09:28;;;;;;;6.40;1.13;;;0.70;99.90;;;;;;5068556;28;20257;-80
2021/04/06 00:11:57;;;;;;;3.07;1.00;;;0.60;99.90;;;;;;5068468;28;20215;-80
2021/04/06 00:14:25;;;;;;;3.83;1.10;;;0.60;99.90;;;;;;5068118;28;20790;-80
2021/04/06 00:16:53;;;;;;;3.60;1.20;;;0.60;99.90;;;;;;5068173;28;20203;-80
2021/04/06 00:19:22;;;;;;;4.23;1.37;;;0.60;99.90;;;;;;5068327;28;20203;-81
2021/04/06 00:21:51;;;;;;;3.03;0.90;;;0.50;99.90;;;;;;5068368;28;20210;-79
2021/04/06 00:24:19;;;;;;;1.63;0.60;;;0.50;99.90;;;;;;5068194;28;20215;-80
2021/04/06 00:26:48;;;;;;;5.03;1.20;;;0.50;99.90;;;;;;5068095;28;20283;-80
2021/04/06 00:29:16;;;;;;;4.73;1.00;;;0.50;99.90;;;;;;5068283;28;20214;-80
2021/04/06 00:31:43;;;;;;;3.60;1.40;;;0.50;99.90;;;;;;5068097;28;20226;-80
2021/04/06 00:34:10;;;;;;;3.10;1.20;;;0.60;99.90;;;;;;5067888;28;20953;-80
2021/04/06 00:36:38;;;;;;;2.77;1.10;;;0.50;99.90;;;;;;5068299;28;20240;-80
2021/04/06 00:39:05;;;;;;;3.93;1.30;;;0.40;99.90;;;;;;5069546;28;20759;-80
2021/04/06 00:41:32;;;;;;;2.10;1.17;;;0.40;99.90;;;;;;5071756;28;20731;-80
2021/04/06 00:44:03;;;;;;;3.40;1.00;;;0.40;99.90;;;;;;5071926;28;20214;-79
2021/04/06 00:46:32;;;;;;;2.03;0.93;;;0.40;99.90;;;;;;5071521;28;20665;-82
2021/04/06 00:48:58;;;;;;;2.50;0.80;;;0.30;99.90;;;;;;5071646;28;20611;-79
2021/04/06 00:51:24;;;;;;;2.63;1.10;;;0.40;99.90;;;;;;5071830;28;20215;-80
2021/04/06 00:54:03;;;;;;;1.83;0.90;;;0.30;99.90;;;;;;5071335;28;20746;-80
2021/04/06 00:56:31;;;;;;;4.13;1.20;;;0.20;99.90;;;;;;5071712;28;20217;-80
2021/04/06 00:59:00;;;;;;;4.63;1.07;;;0.30;99.90;;;;;;5071141;28;20692;-80
2021/04/06 01:01:36;;;;;;;2.67;1.40;;;0.30;99.90;;;;;;5071449;28;20218;-80
2021/04/06 01:04:06;;;;;;;3.07;1.30;;;0.40;99.90;;;;;;5071184;28;20715;-79
2021/04/06 01:06:34;;;;;;;2.10;0.80;;;0.30;99.90;;;;;;5071106;28;20727;-79
2021/04/06 01:09:01;;;;;;;3.00;1.20;;;0.20;99.90;;;;;;5071154;28;20210;-80
2021/04/06 01:11:27;;;;;;;3.17;1.40;;;0.20;99.90;;;;;;5071193;28;20202;-79
2021/04/06 01:14:00;;;;;;;5.27;1.53;;;0.30;99.90;;;;;;5070774;28;20250;-79
2021/04/06 01:16:26;;;;;;;3.37;1.00;;;0.20;99.90;;;;;;5070852;28;20645;-80
2021/04/06 01:18:52;;;;;;;3.20;1.13;;;0.30;99.90;;;;;;5070873;28;20634;-79
2021/04/06 01:21:19;;;;;;;1.33;1.20;;;0.30;99.90;;;;;;5071040;28;20213;-79
2021/04/06 01:23:46;;;;;;;3.80;1.33;;;0.30;99.90;;;;;;5070866;28;20214;-79
2021/04/06 01:26:12;;;;;;;4.83;1.23;;;0.20;99.90;;;;;;5070803;28;20210;-79
2021/04/06 01:28:39;;;;;;;4.13;1.50;;;0.20;99.90;;;;;;5071145;28;20233;-79
2021/04/06 01:31:08;;;;;;;1.53;1.27;;;0.20;99.90;;;;;;5070776;28;20230;-79
2021/04/06 01:33:35;;;;;;;2.40;1.40;;;0.20;99.90;;;;;;5070880;28;20623;-80
2021/04/06 01:36:03;;;;;;;2.43;1.63;;;0.10;99.90;;;;;;5070753;28;20567;-79
2021/04/06 01:38:30;;;;;;;3.00;1.20;;;0.10;99.90;;;;;;5070445;28;20568;-80
2021/04/06 01:40:59;;;;;;;2.07;1.87;;;0.20;99.90;;;;;;5070653;28;20618;-80
2021/04/06 01:43:27;;;;;;;2.87;1.40;;;0.20;99.90;;;;;;5070717;28;20224;-79
2021/04/06 01:45:58;;;;;;;2.10;1.30;;;0.20;99.90;;;;;;5070399;28;20725;-79
2021/04/06 01:48:28;;;;;;;2.50;1.20;;;0.20;99.90;;;;;;5070814;28;20239;-80
2021/04/06 01:50:55;;;;;;;1.20;1.00;;;0.20;99.90;;;;;;5069257;28;20230;-80
2021/04/06 01:53:22;;;;;;;5.63;1.67;;;0.20;99.90;;;;;;5070641;28;20701;-79
2021/04/06 01:55:52;;;;;;;2.10;1.07;;;0.10;99.90;;;;;;5070544;28;20288;-80
2021/04/06 01:58:21;;;;;;;2.50;1.33;;;0.10;99.90;;;;;;5070824;28;20206;-80
2021/04/06 02:01:01;;;;;;;4.10;1.30;;;0.10;99.90;;;;;;5070089;28;20675;-79
2021/04/06 02:03:28;;;;;;;3.60;1.70;;;0.10;99.90;;;;;;5070332;28;20209;-80
2021/04/06 02:05:56;;;;;;;3.17;1.40;;;0.00;99.90;;;;;;5070536;28;20213;-80
2021/04/06 02:08:24;;;;;;;2.20;1.17;;;0.10;99.90;;;;;;5070271;28;20213;-80
2021/04/06 02:10:51;;;;;;;1.93;1.70;;;0.10;99.90;;;;;;5070139;28;20219;-80
2021/04/06 02:13:19;;;;;;;3.20;1.60;;;0.20;99.90;;;;;;5069996;28;20221;-79
2021/04/06 02:15:55;;;;;;;4.97;1.30;;;0.20;99.90;;;;;;5069386;28;20231;-81
2021/04/06 02:18:22;;;;;;;1.70;1.40;;;0.20;99.90;;;;;;5070417;28;20202;-80
2021/04/06 02:20:52;;;;;;;3.10;1.43;;;0.20;99.90;;;;;;5070127;28;20243;-81
2021/04/06 02:23:19;;;;;;;2.93;1.03;;;0.20;99.90;;;;;;5069635;28;20695;-79
2021/04/06 02:25:50;;;;;;;2.30;1.67;;;0.20;99.90;;;;;;5069977;28;20355;-80
2021/04/06 02:28:16;;;;;;;2.30;1.40;;;0.20;99.90;;;;;;5069831;28;20208;-80
2021/04/06 02:30:54;;;;;;;2.63;1.30;;;0.20;99.90;;;;;;5069817;28;20242;-80
2021/04/06 02:33:27;;;;;;;3.97;1.87;;;0.20;99.90;;;;;;5070112;28;20408;-80
2021/04/06 02:36:01;;;;;;;3.23;1.77;;;0.30;99.90;;;;;;5069309;28;20718;-80
2021/04/06 02:38:28;;;;;;;4.83;1.43;;;0.20;99.90;;;;;;5069612;28;20202;-80
2021/04/06 02:41:09;;;;;;;2.93;1.50;;;0.20;99.90;;;;;;5069747;28;20214;-80
2021/04/06 02:43:43;;;;;;;2.80;1.60;;;0.20;99.90;;;;;;5069416;28;20742;-80
2021/04/06 02:46:11;;;;;;;2.80;1.30;;;0.20;99.90;;;;;;5069225;28;20200;-79
2021/04/06 02:48:37;;;;;;;2.83;1.73;;;0.20;99.90;;;;;;5069275;28;20673;-79
2021/04/06 02:51:04;;;;;;;3.40;1.33;;;0.10;99.90;;;;;;5069214;28;20255;-80
2021/04/06 02:53:32;;;;;;;4.13;1.50;;;0.00;99.90;;;;;;5068989;28;20696;-80
2021/04/06 02:55:58;;;;;;;2.23;1.27;;;0.10;99.90;;;;;;5068948;28;20237;-80
2021/04/06 02:58:24;;;;;;;1.60;1.50;;;0.10;99.90;;;;;;5069018;28;20619;-81
2021/04/06 03:00:51;;;;;;;3.87;1.73;;;0.10;99.90;;;;;;5068597;28;20673;-80
2021/04/06 03:03:22;;;;;;;4.63;1.80;;;0.10;99.90;;;;;;5068866;28;20218;-79
2021/04/06 03:06:00;;;;;;;1.77;1.13;;;0.10;99.90;;;;;;5068745;28;20218;-80
2021/04/06 03:08:29;;;;;;;3.60;1.57;;;0.10;99.90;;;;;;5069269;28;20206;-80
2021/04/06 03:10:56;;;;;;;2.80;1.60;;;0.00;99.90;;;;;;5068971;28;20575;-81
2021/04/06 03:13:24;;;;;;;5.13;1.70;;;0.00;99.90;;;;;;5069139;28;20207;-79
2021/04/06 03:15:51;;;;;;;5.17;2.03;;;0.00;99.90;;;;;;5068907;28;20316;-81
2021/04/06 03:18:17;;;;;;;1.90;1.47;;;0.00;99.90;;;;;;5068605;28;20672;-79
2021/04/06 03:20:45;;;;;;;2.57;1.60;;;-0.10;99.90;;;;;;5069162;28;20207;-80
2021/04/06 03:23:11;;;;;;;1.67;1.47;;;0.00;99.90;;;;;;5068799;28;20239;-80
2021/04/06 03:25:38;;;;;;;5.70;1.80;;;0.00;99.90;;;;;;5068710;28;20206;-80
2021/04/06 03:28:06;;;;;;;2.17;1.67;;;0.00;99.90;;;;;;5068296;28;20730;-80
2021/04/06 03:30:32;;;;;;;1.87;1.77;;;-0.10;99.90;;;;;;5068621;28;20303;-80
2021/04/06 03:33:00;;;;;;;3.17;1.80;;;0.00;99.90;;;;;;5068577;28;20232;-79
2021/04/06 03:35:27;;;;;;;2.67;1.83;;;-0.10;99.90;;;;;;5068676;28;20235;-79
2021/04/06 03:37:54;;;;;;;4.53;2.37;;;-0.10;99.90;;;;;;5068676;28;20249;-80
2021/04/06 03:40:21;;;;;;;3.10;2.30;;;-0.20;99.90;;;;;;5068484;28;20214;-79
2021/04/06 03:42:47;;;;;;;3.93;2.70;;;-0.20;99.90;;;;;;5068786;28;20217;-79
2021/04/06 03:45:14;;;;;;;2.67;1.50;;;-0.20;99.90;;;;;;5068052;28;20625;-80
2021/04/06 03:47:54;;;;;;;4.00;2.10;;;-0.20;99.90;;;;;;5068000;28;20662;-80
2021/04/06 03:50:38;;;;;;;6.20;2.70;;;-0.30;99.90;;;;;;5068433;28;20618;-80
2021/04/06 03:53:07;;;;;;;3.80;2.30;;;-0.20;99.90;;;;;;5068537;28;20282;-79
2021/04/06 03:55:33;;;;;;;3.47;2.13;;;-0.20;99.90;;;;;;5068710;28;20241;-80
2021/04/06 03:58:06;;;;;;;2.27;2.07;;;-0.20;99.90;;;;;;5068305;28;20215;-79
2021/04/06 04:00:32;;;;;;;5.40;1.90;;;-0.30;99.90;;;;;;5068375;28;20204;-79
2021/04/06 04:03:00;;;;;;;2.37;1.70;;;-0.30;99.90;;;;;;5067989;28;20722;-80
2021/04/06 04:05:26;;;;;;;3.20;2.37;;;-0.30;99.90;;;;;;5068335;28;20214;-81
2021/04/06 04:07:52;;;;;;;3.60;1.90;;;-0.20;99.90;;;;;;5068514;28;20205;-80
2021/04/06 04:10:19;;;;;;;3.43;2.30;;;-0.30;99.90;;;;;;5068029;28;20519;-80
2021/04/06 04:12:45;;;;;;;4.87;2.27;;;-0.30;99.90;;;;;;5068090;28;20218;-79
2021/04/06 04:15:15;;;;;;;3.60;2.10;;;-0.30;99.90;;;;;;5071617;28;20248;-80
2021/04/06 04:17:42;;;;;;;2.63;1.87;;;-0.30;99.90;;;;;;5072421;28;20201;-79
2021/04/06 04:20:10;;;;;;;4.40;1.97;;;-0.30;99.90;;;;;;5072512;28;20209;-80
2021/04/06 04:22:36;;;;;;;2.23;1.70;;;-0.40;99.90;;;;;;5072590;28;20220;-79
2021/04/06 04:25:03;;;;;;;3.53;1.80;;;-0.30;99.90;;;;;;5072057;28;20687;-79
2021/04/06 04:27:30;;;;;;;2.47;2.03;;;-0.40;99.90;;;;;;5072108;28;20672;-79
2021/04/06 04:29:57;;;;;;;4.70;2.00;;;-0.30;99.90;;;;;;5072152;28;20611;-79
2021/04/06 04:32:23;;;;;;;2.10;1.90;;;-0.20;99.90;;;;;;5071495;28;20229;-79
2021/04/06 04:34:49;;;;;;;6.40;3.80;;;-0.30;99.90;;;;;;5072254;28;20271;-80
2021/04/06 04:37:15;;;;;;;6.43;3.20;;;-0.40;99.90;;;;;;5071846;28;20259;-79
2021/04/06 04:39:41;;;;;;;2.80;1.90;;;-0.40;99.90;;;;;;5071949;28;20217;-80
2021/04/06 04:42:07;;;;;;;4.13;1.90;;;-0.40;99.90;;;;;;5071880;28;20252;-79
2021/04/06 04:44:35;;;;;;;5.77;4.50;;;-0.40;99.90;;;;;;5071482;28;20680;-80
2021/04/06 04:47:01;;;;;;;2.93;2.67;;;-0.40;99.90;;;;;;5071640;28;20244;-79
2021/04/06 04:49:27;;;;;;;3.87;2.03;;;-0.40;99.90;;;;;;5071588;28;20199;-79
2021/04/06 04:51:53;;;;;;;2.10;1.90;;;-0.40;99.90;;;;;;5071850;28;20206;-79
2021/04/06 04:54:19;;;;;;;4.90;2.33;;;-0.40;99.90;;;;;;5071354;28;20265;-79
2021/04/06 04:56:45;;;;;;;2.10;1.90;;;-0.50;99.90;;;;;;5071169;28;20600;-80
2021/04/06 04:59:11;;;;;;;4.07;2.57;;;-0.40;99.90;;;;;;5071532;28;20213;-79
2021/04/06 05:01:39;;;;;;;3.30;2.27;;;-0.40;99.90;;;;;;5071420;28;20237;-79
2021/04/06 05:04:06;;;;;;;4.03;2.03;;;-0.40;99.90;;;;;;5071375;28;20280;-79
2021/04/06 05:06:32;;;;;;;5.13;2.10;;;-0.40;99.90;;;;;;5071460;28;20202;-79
2021/04/06 05:08:58;;;;;;;3.80;2.20;;;-0.40;99.90;;;;;;5071468;28;20206;-79
2021/04/06 05:11:24;;;;;;;2.50;1.90;;;-0.30;99.90;;;;;;5070990;28;20679;-78
2021/04/06 05:13:52;;;;;;;5.27;2.30;;;-0.40;99.90;;;;;;5071097;28;20282;-79
2021/04/06 05:16:18;;;;;;;4.50;2.30;;;-0.40;99.90;;;;;;5070915;28;20230;-79
2021/04/06 05:18:46;;;;;;;4.53;2.27;;;-0.40;99.90;;;;;;5071386;28;20284;-79
2021/04/06 05:21:12;;;;;;;4.00;2.30;;;-0.30;99.90;;;;;;5071111;28;20320;-78
2021/04/06 05:23:38;;;;;;;4.23;2.20;;;-0.30;99.90;;;;;;5071094;28;20244;-79
2021/04/06 05:26:05;;;;;;;3.73;2.30;;;-0.40;99.90;;;;;;5070982;28;20217;-78
2021/04/06 05:28:31;;;;;;;4.10;2.70;;;-0.40;99.90;;;;;;5070914;28;20219;-79
2021/04/06 05:30:57;;;;;;;3.43;2.60;;;-0.40;99.90;;;;;;5070554;28;20659;-79
2021/04/06 05:33:23;;;;;;;2.67;2.27;;;-0.40;99.90;;;;;;5070638;28;20250;-79
2021/04/06 05:35:52;;;;;;;4.17;2.40;;;-0.30;99.90;;;;;;5070912;28;21055;-80
2021/04/06 05:38:19;;;;;;;3.93;2.57;;;-0.30;99.90;;;;;;5070429;28;20669;-79
2021/04/06 05:40:45;;;;;;;4.47;2.80;;;-0.30;99.90;;;;;;5070854;28;20215;-80
2021/04/06 05:43:14;;;;;;;4.23;2.87;;;-0.20;99.90;;;;;;5070633;28;20260;-79
2021/04/06 05:45:44;;;;;;;3.67;2.60;;;-0.10;99.90;;;;;;5070890;28;20207;-79
2021/04/06 05:48:13;;;;;;;3.77;3.47;;;-0.10;99.90;;;;;;5070621;28;20777;-80
2021/04/06 05:50:41;;;;;;;4.23;2.50;;;-0.10;99.90;;;;;;5070636;28;20228;-80
2021/04/06 05:53:09;;;;;;;2.40;2.20;;;0.00;99.90;;;;;;5070809;28;20218;-80
2021/04/06 05:55:35;;;;;;;5.53;2.83;;;0.00;99.90;;;;;;5070493;28;20245;-80
2021/04/06 05:58:01;;;;;;;3.80;2.43;;;0.00;99.90;;;;;;5070667;28;20239;-80
2021/04/06 06:00:27;;;;;;;3.80;2.33;;;0.10;99.90;;;;;;5070436;28;20206;-79
2021/04/06 06:02:54;;;;;;;3.97;2.43;;;0.10;99.90;;;;;;5070324;28;20210;-79
2021/04/06 06:05:20;;;;;;;3.53;2.30;;;0.10;99.90;;;;;;5069982;28;20686;-79
2021/04/06 06:07:46;;;;;;;3.33;2.43;;;0.10;99.90;;;;;;5070219;28;20203;-79
2021/04/06 06:10:27;;;;;;;4.00;2.77;;;0.20;99.90;;;;;;5070204;28;20206;-79
2021/04/06 06:12:53;;;;;;;3.93;2.60;;;0.20;99.90;;;;;;5070379;28;20219;-79
2021/04/06 06:15:20;;;;;;;5.17;2.27;;;0.20;99.90;;;;;;5069623;28;20292;-79
2021/04/06 06:18:01;;;;;;;2.80;2.57;;;0.20;99.90;;;;;;5070214;28;20218;-79
2021/04/06 06:20:27;;;;;;;3.43;2.23;;;0.30;99.90;;;;;;5069773;28;20904;-79
2021/04/06 06:22:54;;;;;;;6.10;2.60;;;0.30;99.90;;;;;;5070040;28;20217;-79
2021/04/06 06:25:20;;;;;;;2.43;2.30;;;0.40;99.90;;;;;;5069639;28;20615;-79
2021/04/06 06:27:47;;;;;;;3.83;2.57;;;0.40;99.90;;;;;;5069833;28;20210;-80
2021/04/06 06:30:27;;;;;;;5.07;2.57;;;0.50;99.90;;;;;;5069836;28;20249;-79
2021/04/06 06:33:12;;;;;;;7.30;2.83;;;0.50;99.90;;;;;;5069956;28;20576;-79
2021/04/06 06:35:39;;;;;;;4.27;2.60;;;0.50;99.90;;;;;;5069439;28;20241;-79
2021/04/06 06:38:18;;;;;;;2.80;2.30;;;0.70;99.90;;;;;;5069561;28;20245;-79
2021/04/06 06:40:45;;;;;;;2.87;2.53;;;0.70;99.90;;;;;;5069547;28;20198;-79
2021/04/06 06:43:14;;;;;;;3.47;2.97;;;0.70;99.90;;;;;;5069476;28;20343;-79
2021/04/06 06:45:41;;;;;;;6.70;3.50;;;0.80;99.90;;;;;;5069188;28;20203;-80
2021/04/06 06:48:08;;;;;;;3.77;2.47;;;1.00;99.90;;;;;;5069455;28;20284;-79
2021/04/06 06:50:46;;;;;;;3.13;2.53;;;1.00;99.90;;;;;;5069502;28;20217;-79
2021/04/06 06:53:13;;;;;;;4.27;3.37;;;1.10;99.90;;;;;;5069307;28;20217;-79
2021/04/06 06:55:39;;;;;;;5.23;2.60;;;1.10;99.90;;;;;;5069224;28;20265;-79
2021/04/06 06:58:07;;;;;;;4.00;2.60;;;1.10;99.90;;;;;;5069384;28;20224;-79
2021/04/06 07:00:36;;;;;;;5.53;2.90;;;1.20;99.90;;;;;;5069051;28;20215;-79
2021/04/06 07:03:14;;;;;;;4.20;2.43;;;1.30;99.90;;;;;;5069037;28;20219;-79
2021/04/06 07:05:40;;;;;;;3.77;2.43;;;1.30;99.90;;;;;;5069235;28;20263;-78
2021/04/06 07:08:09;;;;;;;4.37;2.40;;;1.30;99.90;;;;;;5069235;28;20262;-79
2021/04/06 07:10:37;;;;;;;4.67;3.00;;;1.30;99.90;;;;;;5068940;28;20658;-79
2021/04/06 07:13:09;;;;;;;4.63;2.50;;;1.30;99.90;;;;;;5068972;28;20679;-78
2021/04/06 07:15:38;;;;;;;3.87;2.50;;;1.50;99.90;;;;;;5068534;28;20266;-78
2021/04/06 07:18:09;;;;;;;3.27;2.20;;;1.60;99.90;;;;;;5068949;28;20618;-79
2021/04/06 07:20:41;;;;;;;3.43;2.63;;;1.70;99.90;;;;;;5068985;28;20722;-79
2021/04/06 07:23:12;;;;;;;4.13;2.27;;;1.70;99.90;;;;;;5069164;28;20192;-78
2021/04/06 07:25:41;;;;;;;4.83;2.40;;;1.60;99.90;;;;;;5069005;28;20550;-78
2021/04/06 07:28:07;;;;;;;4.40;2.50;;;1.70;99.90;;;;;;5068821;28;20931;-79
2021/04/06 07:30:33;;;;;;;3.63;2.20;;;1.70;99.90;;;;;;5068868;28;20251;-79
2021/04/06 07:33:01;;;;;;;4.20;2.90;;;1.90;99.90;;;;;;5068849;28;20265;-78
2021/04/06 07:35:28;;;;;;;4.33;2.60;;;2.00;99.90;;;;;;5068536;28;20223;-78
2021/04/06 07:37:54;;;;;;;3.77;3.20;;;1.90;99.90;;;;;;5068704;28;20235;-79
2021/04/06 07:40:22;;;;;;;4.20;2.87;;;2.00;99.90;;;;;;5068410;28;20686;-78
2021/04/06 07:42:48;;;;;;;4.67;2.80;;;2.00;99.90;;;;;;5068705;28;20256;-78
2021/04/06 07:45:38;;;;;;;3.80;2.60;;;2.00;99.90;;;;;;5068479;28;20212;-78
2021/04/06 07:48:06;;;;;;;7.33;2.67;;;2.00;99.90;;;;;;5067445;28;20203;-78
2021/04/06 07:50:36;;;;;;;4.63;2.20;;;2.10;99.90;;;;;;5068610;28;20215;-78
2021/04/06 07:53:26;;;;;;;5.23;2.87;;;2.00;99.90;;;;;;5068502;28;20203;-79
2021/04/06 07:55:54;;;;;;;5.73;2.43;;;1.90;99.90;;;;;;5068459;28;20219;-79
2021/04/06 07:58:46;;;;;;;6.87;3.30;;;2.00;99.90;;;;;;5068195;28;20266;-79
2021/04/06 08:01:16;;;;;;;6.47;3.07;;;2.20;99.90;;;;;;5068380;28;20212;-79
2021/04/06 08:04:01;;;;;;;4.10;2.70;;;2.40;99.90;;;;;;5068278;28;20199;-79
2021/04/06 08:06:29;;;;;;;4.97;2.80;;;2.30;99.90;;;;;;5068163;28;20219;-79
2021/04/06 08:08:56;;;;;;;2.87;2.57;;;2.20;99.90;;;;;;5068430;28;20211;-79
2021/04/06 08:12:05;;;;;;;4.30;2.60;;;2.30;99.90;;;;;;5067962;28;20673;-79
2021/04/06 08:14:32;;;;;;;3.60;2.90;;;2.30;99.90;;;;;;5068108;28;20357;-78
2021/04/06 08:17:32;;;;;;;4.37;2.80;;;2.30;99.90;;;;;;5067963;28;20214;-78
2021/04/06 08:20:00;;;;;;;4.23;2.70;;;2.20;99.90;;;;;;5067750;28;20661;-79
2021/04/06 08:22:29;;;;;;;7.53;2.93;;;2.20;99.90;;;;;;5068233;28;20230;-78
2021/04/06 08:25:33;;;;;;;10.13;3.10;;;2.30;99.90;;;;;;5068370;28;20259;-79
2021/04/06 08:28:01;;;;;;;4.03;3.00;;;2.30;99.90;;;;;;5067669;28;20206;-78
2021/04/06 08:30:30;;;;;;;7.40;2.83;;;2.40;99.90;;;;;;5068033;28;20246;-79
2021/04/06 08:33:25;;;;;;;4.50;2.50;;;2.50;99.90;;;;;;5068084;28;20207;-79
2021/04/06 08:36:02;;;;;;;8.37;2.60;;;2.50;99.90;;;;;;5068172;28;20595;-79
2021/04/06 08:38:45;;;;;;;7.87;2.93;;;2.50;99.90;;;;;;5068373;28;21023;-78
2021/04/06 08:41:13;;;;;;;4.00;2.63;;;2.50;99.90;;;;;;5068030;28;20207;-79
2021/04/06 08:43:44;;;;;;;5.63;2.70;;;2.60;99.90;;;;;;5068224;28;20218;-77
2021/04/06 08:46:13;;;;;;;5.70;2.70;;;2.60;99.90;;;;;;5067452;28;20211;-78
2021/04/06 08:48:49;;;;;;;2.87;2.53;;;2.50;99.90;;;;;;5067946;28;20215;-78
2021/04/06 08:51:20;;;;;;;4.17;2.73;;;2.50;99.90;;;;;;5067868;28;20247;-78
2021/04/06 08:53:47;;;;;;;8.50;2.73;;;2.60;99.90;;;;;;5067965;28;20218;-78
2021/04/06 08:56:13;;;;;;;6.70;2.73;;;2.70;99.90;;;;;;5067996;28;20231;-78
2021/04/06 08:58:40;;;;;;;8.10;2.70;;;2.80;99.90;;;;;;5067801;28;20214;-79
2021/04/06 09:01:07;;;;;;;8.10;2.77;;;2.80;99.90;;;;;;5070884;28;20580;-79
2021/04/06 09:03:34;;;;;;;4.33;2.40;;;2.80;99.90;;;;;;5071497;28;20208;-78
2021/04/06 09:06:05;;;;;;;3.13;2.30;;;2.80;99.90;;;;;;5071643;28;20215;-78
2021/04/06 09:08:49;;;;;;;8.93;3.30;;;2.90;99.90;;;;;;5070832;28;20203;-79
2021/04/06 09:11:17;;;;;;;4.57;3.50;;;2.90;99.90;;;;;;5071342;28;20612;-79
2021/04/06 09:13:44;;;;;;;5.17;2.50;;;3.00;99.90;;;;;;5070662;28;20611;-79
2021/04/06 09:16:10;;;;;;;7.37;2.67;;;3.10;99.90;;;;;;5071267;28;20251;-78
2021/04/06 09:18:37;;;;;;;3.70;2.60;;;3.10;99.90;;;;;;5070855;28;20629;-79
2021/04/06 09:21:08;;;;;;;6.20;2.23;;;3.10;99.90;;;;;;5071235;28;20616;-79
2021/04/06 09:23:37;;;;;;;7.30;2.50;;;3.10;99.90;;;;;;5071186;28;20236;-78
2021/04/06 09:26:04;;;;;;;4.13;2.70;;;3.20;99.90;;;;;;5071431;28;20254;-79
2021/04/06 09:28:31;;;;;;;4.50;3.03;;;3.20;99.90;;;;;;5071025;28;20218;-79
2021/04/06 09:30:58;;;;;;;6.47;2.87;;;3.30;99.90;;;;;;5071052;28;20245;-78
2021/04/06 09:33:24;;;;;;;5.70;2.20;;;3.50;99.90;;;;;;5071051;28;20579;-79
2021/04/06 09:35:52;;;;;;;5.03;2.73;;;3.60;99.90;;;;;;5070959;28;20233;-78
2021/04/06 09:38:19;;;;;;;6.03;2.37;;;3.60;99.90;;;;;;5070949;28;20208;-78
2021/04/06 09:40:46;;;;;;;5.73;2.40;;;3.70;99.90;;;;;;5071120;28;20207;-78
2021/04/06 09:43:12;;;;;;;4.77;2.30;;;3.90;99.90;;;;;;5070685;28;20857;-78
2021/04/06 09:45:38;;;;;;;4.53;2.10;;;4.00;99.90;;;;;;5070648;28;20218;-78
2021/04/06 09:48:07;;;;;;;4.30;2.27;;;4.10;99.90;;;;;;5070625;28;20261;-78
2021/04/06 09:50:34;;;;;;;5.23;2.60;;;4.10;99.90;;;;;;5070635;28;20207;-78
2021/04/06 09:53:00;;;;;;;4.33;2.37;;;4.10;99.90;;;;;;5070860;28;20214;-79
2021/04/06 09:55:30;;;;;;;7.77;2.33;;;4.20;99.90;;;;;;5070315;28;20234;-78
2021/04/06 09:58:02;;;;;;;7.97;2.87;;;4.20;99.90;;;;;;5070571;28;20215;-79
2021/04/06 10:00:30;;;;;;;4.30;2.23;;;4.20;99.90;;;;;;5070578;28;20195;-79
2021/04/06 10:03:15;;;;;;;5.47;2.43;;;4.30;99.90;;;;;;5069917;28;20214;-78
2021/04/06 10:05:45;;;;;;;6.17;2.27;;;4.40;99.90;;;;;;5070341;28;20568;-79
2021/04/06 10:08:12;;;;;;;4.60;2.20;;;4.60;99.90;;;;;;5070380;28;20200;-80
2021/04/06 10:10:47;;;;;;;2.83;2.03;;;4.60;99.90;;;;;;5069644;28;20218;-80
2021/04/06 10:13:13;;;;;;;6.93;2.40;;;4.60;99.90;;;;;;5069985;28;20191;-80
2021/04/06 10:15:39;;;;;;;3.27;1.90;;;4.50;99.90;;;;;;5069473;28;20617;-80
2021/04/06 10:18:10;;;;;;;3.53;2.00;;;4.40;99.90;;;;;;5070063;28;20461;-79
2021/04/06 10:20:41;;;;;;;5.73;2.37;;;4.40;99.90;;;;;;5069829;28;20215;-80
2021/04/06 10:23:07;;;;;;;3.87;2.00;;;4.40;99.90;;;;;;5069929;28;20336;-79
2021/04/06 10:25:35;;;;;;;4.87;2.10;;;4.40;99.90;;;;;;5069975;28;20210;-78
2021/04/06 10:28:07;;;;;;;7.23;3.10;;;4.40;99.90;;;;;;5069922;28;20227;-78
2021/04/06 10:30:37;;;;;;;7.20;2.00;;;4.50;99.90;;;;;;5069586;28;20698;-78
2021/04/06 10:33:07;;;;;;;4.60;2.00;;;4.60;99.90;;;;;;5069868;28;20196;-78
2021/04/06 10:35:37;;;;;;;5.03;2.10;;;4.60;99.90;;;;;;5069441;28;20238;-78
2021/04/06 10:38:05;;;;;;;7.80;2.37;;;4.50;99.90;;;;;;5069407;28;20646;-78
2021/04/06 10:40:35;;;;;;;10.73;2.40;;;4.40;99.90;;;;;;5069457;28;20209;-78
2021/04/06 10:43:05;;;;;;;7.67;2.60;;;4.40;99.90;;;;;;5069565;28;20204;-78
2021/04/06 10:45:33;;;;;;;7.57;2.00;;;4.50;99.90;;;;;;5069494;28;20219;-79
2021/04/06 10:48:07;;;;;;;5.00;2.30;;;4.70;99.90;;;;;;5069227;28;20707;-79
2021/04/06 10:50:36;;;;;;;5.40;2.30;;;4.60;99.90;;;;;;5069573;28;20312;-80
2021/04/06 10:53:16;;;;;;;6.67;2.37;;;4.70;99.90;;;;;;5069460;28;20256;-79
2021/04/06 10:55:42;;;;;;;5.00;1.93;;;4.80;99.90;;;;;;5069267;28;20588;-79
2021/04/06 10:58:08;;;;;;;4.53;2.03;;;5.20;99.90;;;;;;5069518;28;20215;-78
2021/04/06 11:00:38;;;;;;;4.33;1.40;;;5.60;99.90;;;;;;5069285;28;20207;-78
2021/04/06 11:03:12;;;;;;;5.50;2.03;;;5.70;99.90;;;;;;5069181;28;20203;-79
2021/04/06 11:05:39;;;;;;;2.80;1.80;;;5.90;99.90;;;;;;5068962;28;20661;-78
2021/04/06 11:08:20;;;;;;;2.57;1.60;;;6.20;99.90;;;;;;5069198;28;20207;-78
2021/04/06 11:10:48;;;;;;;8.27;2.00;;;6.30;99.90;;;;;;5068697;28;20300;-80
2021/04/06 11:13:14;;;;;;;4.70;1.77;;;6.60;99.90;;;;;;5068857;28;20203;-78
2021/04/06 11:15:41;;;;;;;6.07;1.63;;;6.60;99.90;;;;;;5068411;28;20269;-78
2021/04/06 11:18:08;;;;;;;3.40;1.97;;;6.40;99.90;;;;;;5069103;28;20206;-79
2021/04/06 11:20:34;;;;;;;5.23;1.97;;;6.30;99.90;;;;;;5068850;28;20273;-78
2021/04/06 11:23:00;;;;;;;4.77;1.73;;;6.10;99.90;;;;;;5068727;28;20211;-78
2021/04/06 11:25:27;;;;;;;3.20;1.90;;;6.10;99.90;;;;;;5068601;28;20211;-79
2021/04/06 11:27:58;;;;;;;8.07;1.57;;;6.10;99.90;;;;;;5068417;28;20577;-78
2021/04/06 11:30:26;;;;;;;3.37;1.63;;;6.10;99.90;;;;;;5068628;28;20239;-78
2021/04/06 11:32:52;;;;;;;7.80;2.00;;;5.90;99.90;;;;;;5068472;28;20218;-78
2021/04/06 11:35:18;;;;;;;2.53;1.70;;;5.80;99.90;;;;;;5068601;28;20253;-79
2021/04/06 11:37:44;;;;;;;3.57;1.60;;;5.30;99.90;;;;;;5068461;28;20243;-78
2021/04/06 11:40:11;;;;;;;4.13;1.90;;;5.20;99.90;;;;;;5068151;28;20914;-78
2021/04/06 11:42:38;;;;;;;4.17;1.73;;;5.10;99.90;;;;;;5068304;28;20242;-79
2021/04/06 11:45:06;;;;;;;3.63;1.40;;;5.40;99.90;;;;;;5068485;28;20211;-79
2021/04/06 11:47:32;;;;;;;2.53;1.80;;;5.80;99.90;;;;;;5067964;28;20662;-79
2021/04/06 11:49:58;;;;;;;6.87;4.13;;;6.00;99.90;;;;;;5068495;28;20318;-78
2021/04/06 11:52:24;;;;;;;5.20;2.23;;;6.00;99.90;;;;;;5068498;28;20234;-78
2021/04/06 11:54:50;;;;;;;4.77;1.90;;;6.10;99.90;;;;;;5068403;28;20211;-79
2021/04/06 11:57:16;;;;;;;4.37;1.70;;;5.90;99.90;;;;;;5068174;28;20214;-78
2021/04/06 11:59:44;;;;;;;5.27;2.20;;;5.70;99.90;;;;;;5068408;28;20203;-78
2021/04/06 12:02:13;;;;;;;2.83;1.77;;;5.80;99.90;;;;;;5068205;28;20207;-79
2021/04/06 12:04:39;;;;;;;3.43;1.80;;;6.00;99.90;;;;;;5067937;28;20806;-78
2021/04/06 12:07:06;;;;;;;3.73;2.00;;;6.00;99.90;;;;;;5068248;28;20210;-79
2021/04/06 12:09:32;;;;;;;3.10;1.37;;;6.00;99.90;;;;;;5068249;28;20215;-79
2021/04/06 12:11:58;;;;;;;4.03;1.93;;;6.10;99.90;;;;;;5068361;28;20207;-78
2021/04/06 12:14:24;;;;;;;2.97;1.43;;;6.20;99.90;;;;;;5068218;28;20300;-78
2021/04/06 12:16:51;;;;;;;3.67;1.50;;;6.10;99.90;;;;;;5067661;28;20300;-78
2021/04/06 12:19:17;;;;;;;3.67;1.30;;;5.90;99.90;;;;;;5068497;28;20250;-79
2021/04/06 12:21:43;;;;;;;4.67;1.60;;;6.10;99.90;;;;;;5068034;28;20590;-78
2021/04/06 12:24:11;;;;;;;4.43;1.70;;;6.50;99.90;;;;;;5068253;28;20250;-78
2021/04/06 12:26:37;;;;;;;3.50;1.70;;;6.70;99.50;;;;;;5068089;28;20242;-79
2021/04/06 12:29:03;;;;;;;1.97;1.40;;;6.70;98.80;;;;;;5068266;28;20234;-78
2021/04/06 12:31:29;;;;;;;2.47;1.30;;;6.70;96.80;;;;;;5067709;28;20709;-78
2021/04/06 12:33:57;;;;;;;2.53;1.40;;;7.10;96.70;;;;;;5067847;28;20218;-78
2021/04/06 12:36:24;;;;;;;1.80;1.20;;;7.60;98.00;;;;;;5072074;28;20224;-78
2021/04/06 12:38:50;;;;;;;2.67;1.27;;;7.70;97.10;;;;;;5071870;28;20256;-79
2021/04/06 12:41:16;;;;;;;3.57;1.20;;;7.70;97.20;;;;;;5072079;28;20556;-78
2021/04/06 12:43:43;;;;;;;4.87;1.30;;;7.70;97.40;;;;;;5071562;28;20247;-78
2021/04/06 12:46:09;;;;;;;4.47;2.10;;;7.70;95.70;;;;;;5071717;28;20204;-78
2021/04/06 12:48:35;;;;;;;4.03;1.70;;;7.50;95.40;;;;;;5071114;28;20211;-78
2021/04/06 12:51:02;;;;;;;2.80;1.30;;;7.40;96.00;;;;;;5071758;28;20609;-78
2021/04/06 12:53:28;;;;;;;4.17;1.47;;;7.40;94.80;;;;;;5071393;28;20570;-78
2021/04/06 12:55:55;;;;;;;2.40;1.20;;;7.40;95.20;;;;;;5071530;28;20269;-78
2021/04/06 12:58:22;;;;;;;3.07;1.40;;;7.50;92.00;;;;;;5071434;28;20212;-79
2021/04/06 13:00:48;;;;;;;3.07;1.07;;;7.70;91.80;;;;;;5071467;28;20218;-79
2021/04/06 13:03:14;;;;;;;2.37;1.30;;;7.60;89.70;;;;;;5071116;28;20208;-78
2021/04/06 13:05:40;;;;;;;4.30;1.40;;;7.70;90.90;;;;;;5071207;28;20736;-79